createdAt,value
2022-11-18T00:00:10.250Z,91.40
2022-11-18T00:02:40.546Z,91.30
2022-11-18T00:05:09.657Z,91.41
2022-11-18T00:07:38.451Z,91.75
2022-11-18T00:10:08.011Z,92.14
2022-11-18T00:13:05.865Z,92.04
2022-11-18T00:15:34.608Z,91.99
2022-11-18T00:18:04.888Z,92.01
2022-11-18T00:20:35.235Z,92.03
2022-11-18T00:23:04.021Z,92.38
2022-11-18T00:25:34.915Z,92.19
2022-11-18T00:28:03.649Z,92.53
2022-11-18T00:30:32.379Z,92.75
2022-11-18T00:33:01.133Z,92.69
2022-11-18T00:35:31.249Z,92.69
2022-11-18T00:37:59.965Z,92.65
2022-11-18T00:40:28.692Z,92.76
2022-11-18T00:42:56.439Z,92.98
2022-11-18T00:45:25.734Z,92.68
2022-11-18T00:47:54.444Z,92.65
2022-11-18T00:50:23.138Z,92.59
2022-11-18T00:52:53.271Z,92.51
2022-11-18T00:55:21.989Z,92.81
2022-11-18T00:57:50.720Z,92.55
2022-11-18T01:00:20.626Z,92.92
2022-11-18T01:02:49.689Z,92.62
2022-11-18T01:05:18.984Z,92.88
2022-11-18T01:07:48.408Z,93.03
2022-11-18T01:10:19.364Z,93.00
2022-11-18T01:13:06.065Z,93.08
2022-11-18T01:15:41.133Z,93.15
2022-11-18T01:18:09.980Z,92.91
2022-11-18T01:20:39.337Z,93.00
2022-11-18T01:23:08.019Z,93.21
2022-11-18T01:25:40.847Z,93.32
2022-11-18T01:28:09.717Z,93.14
2022-11-18T01:30:41.616Z,93.11
2022-11-18T01:33:10.604Z,93.35
2022-11-18T01:35:41.934Z,93.22
2022-11-18T01:38:12.951Z,93.00
2022-11-18T01:40:43.490Z,93.06
2022-11-18T01:43:17.653Z,92.91
2022-11-18T01:45:50.075Z,93.09
2022-11-18T01:48:24.887Z,93.34
2022-11-18T01:50:59.338Z,93.43
2022-11-18T01:53:34.949Z,93.38
2022-11-18T01:56:13.575Z,94.04
2022-11-18T01:58:51.389Z,94.43
2022-11-18T02:01:20.998Z,94.25
2022-11-18T02:03:51.759Z,94.09
2022-11-18T02:06:21.118Z,93.93
2022-11-18T02:08:51.947Z,94.13
2022-11-18T02:11:39.494Z,94.30
2022-11-18T02:14:11.593Z,94.06
2022-11-18T02:16:58.019Z,94.08
2022-11-18T02:20:00.727Z,94.04
2022-11-18T02:22:53.920Z,94.15
2022-11-18T02:25:41.026Z,94.48
2022-11-18T02:28:38.239Z,94.35
2022-11-18T02:31:17.325Z,94.23
2022-11-18T02:33:56.512Z,94.45
2022-11-18T02:36:41.421Z,94.41
2022-11-18T02:39:18.342Z,94.46
2022-11-18T02:41:50.960Z,94.21
2022-11-18T02:44:24.093Z,94.35
2022-11-18T02:47:02.084Z,94.20
2022-11-18T02:49:39.097Z,94.10
2022-11-18T02:52:12.169Z,94.31
2022-11-18T02:54:44.537Z,94.67
2022-11-18T02:57:16.634Z,94.72
2022-11-18T02:59:45.380Z,94.58
2022-11-18T03:02:19.992Z,94.52
2022-11-18T03:04:54.223Z,94.59
2022-11-18T03:07:31.291Z,94.77
2022-11-18T03:10:02.396Z,94.78
2022-11-18T03:12:44.440Z,94.69
2022-11-18T03:15:28.183Z,94.72
2022-11-18T03:18:08.774Z,94.61
2022-11-18T03:20:46.490Z,94.63
2022-11-18T03:23:26.496Z,94.83
2022-11-18T03:26:01.547Z,94.92
2022-11-18T03:28:41.337Z,94.64
2022-11-18T03:31:20.944Z,94.81
2022-11-18T03:33:57.740Z,94.66
2022-11-18T03:36:34.776Z,94.74
2022-11-18T03:39:07.888Z,94.55
2022-11-18T03:41:57.606Z,94.80
2022-11-18T03:44:34.072Z,95.28
2022-11-18T03:47:09.873Z,95.46
2022-11-18T03:49:46.938Z,95.40
2022-11-18T03:52:21.842Z,95.06
2022-11-18T03:54:57.106Z,95.17
2022-11-18T03:57:35.981Z,95.20
2022-11-18T04:00:10.055Z,95.04
2022-11-18T04:02:39.832Z,94.97
2022-11-18T04:05:14.700Z,95.26
2022-11-18T04:07:57.541Z,95.04
2022-11-18T04:10:34.466Z,94.95
2022-11-18T04:13:09.203Z,94.67
2022-11-18T04:15:40.632Z,94.77
2022-11-18T04:18:10.659Z,94.73
2022-11-18T04:20:41.285Z,94.98
2022-11-18T04:23:10.501Z,94.68
2022-11-18T04:25:39.489Z,94.60
2022-11-18T04:28:08.335Z,94.39
2022-11-18T04:30:37.538Z,94.26
2022-11-18T04:33:06.483Z,94.16
2022-11-18T04:35:35.182Z,94.48
2022-11-18T04:38:06.430Z,95.22
2022-11-18T04:40:35.168Z,95.00
2022-11-18T04:43:04.178Z,95.11
2022-11-18T04:45:32.858Z,94.35
2022-11-18T04:48:03.823Z,94.38
2022-11-18T04:50:32.739Z,94.00
2022-11-18T04:53:01.518Z,94.18
2022-11-18T04:55:31.626Z,93.94
2022-11-18T04:58:00.411Z,93.65
2022-11-18T05:00:29.368Z,93.86
2022-11-18T05:02:58.164Z,93.70
2022-11-18T05:05:27.196Z,93.64
2022-11-18T05:07:55.978Z,93.25
2022-11-18T05:10:25.981Z,93.44
2022-11-18T05:17:57.363Z,93.30
2022-11-18T05:20:24.850Z,92.92
2022-11-18T05:22:53.633Z,92.83
2022-11-18T05:25:22.531Z,92.96
2022-11-18T05:27:51.316Z,93.03
2022-11-18T05:30:23.336Z,93.14
2022-11-18T05:32:52.102Z,93.16
2022-11-18T05:35:22.235Z,92.70
2022-11-18T05:37:51.284Z,92.84
2022-11-18T05:40:20.184Z,92.60
2022-11-18T05:43:06.670Z,92.35
2022-11-18T05:45:35.562Z,92.53
2022-11-18T05:48:05.669Z,92.70
2022-11-18T05:50:39.760Z,93.08
2022-11-18T05:53:08.538Z,92.97
2022-11-18T05:55:43.473Z,92.83
2022-11-18T05:58:12.128Z,93.01
2022-11-18T06:00:41.625Z,92.48
2022-11-18T06:03:26.116Z,92.43
2022-11-18T06:06:03.108Z,92.66
2022-11-18T06:08:41.005Z,92.54
2022-11-18T06:11:16.006Z,91.99
2022-11-18T06:13:51.737Z,91.62
2022-11-18T06:16:27.869Z,91.90
2022-11-18T06:18:57.242Z,90.80
2022-11-18T06:21:27.722Z,91.04
2022-11-18T06:23:57.047Z,90.69
2022-11-18T06:26:25.980Z,90.57
2022-11-18T06:28:56.725Z,90.17
2022-11-18T06:31:25.417Z,89.84
2022-11-18T06:33:54.160Z,89.46
2022-11-18T06:36:22.895Z,89.11
2022-11-18T06:38:52.967Z,89.25
2022-11-18T06:41:21.736Z,88.80
2022-11-18T06:43:49.394Z,88.46
2022-11-18T06:46:36.558Z,88.31
2022-11-18T06:49:05.688Z,88.26
2022-11-18T06:51:34.453Z,87.91
2022-11-18T06:54:09.204Z,88.11
2022-11-18T06:56:39.843Z,87.93
2022-11-18T06:59:08.560Z,87.97
2022-11-18T07:01:40.051Z,88.09
2022-11-18T07:04:08.879Z,87.89
2022-11-18T07:06:38.661Z,87.87
2022-11-18T07:09:09.270Z,87.70
2022-11-18T07:11:40.461Z,87.52
2022-11-18T07:14:09.724Z,87.23
2022-11-18T07:16:38.954Z,87.30
2022-11-18T07:19:12.111Z,87.46
2022-11-18T07:21:42.712Z,87.39
2022-11-18T07:24:16.335Z,87.45
2022-11-18T07:26:45.344Z,86.57
2022-11-18T07:29:14.170Z,86.92
2022-11-18T07:31:42.908Z,86.24
2022-11-18T07:34:11.720Z,86.56
2022-11-18T07:36:40.733Z,86.21
2022-11-18T07:44:12.902Z,85.44
2022-11-18T07:46:42.242Z,85.08
2022-11-18T07:49:12.839Z,84.91
2022-11-18T07:51:42.179Z,84.87
2022-11-18T07:54:13.311Z,85.07
2022-11-18T07:56:42.197Z,85.00
2022-11-18T07:59:11.205Z,84.71
2022-11-18T08:01:41.428Z,85.32
2022-11-18T08:04:15.353Z,85.54
2022-11-18T08:06:44.059Z,85.20
2022-11-18T08:09:13.525Z,85.41
2022-11-18T08:11:42.331Z,84.67
2022-11-18T08:14:11.157Z,84.67
2022-11-18T08:16:41.274Z,84.11
2022-11-18T08:19:09.969Z,84.61
2022-11-18T08:21:38.750Z,84.62
2022-11-18T08:24:08.172Z,84.95
2022-11-18T08:26:37.104Z,84.76
2022-11-18T08:29:05.885Z,84.64
2022-11-18T08:31:34.613Z,85.09
2022-11-18T08:34:07.626Z,85.39
2022-11-18T08:36:39.273Z,85.05
2022-11-18T08:39:12.780Z,84.39
2022-11-18T08:41:44.031Z,84.33
2022-11-18T08:44:15.888Z,84.54
2022-11-18T08:46:46.111Z,84.34
2022-11-18T08:49:16.817Z,84.52
2022-11-18T08:51:45.930Z,84.96
2022-11-18T08:54:14.859Z,85.19
2022-11-18T08:56:43.610Z,85.45
2022-11-18T08:59:14.773Z,84.61
2022-11-18T09:01:43.768Z,84.22
2022-11-18T09:04:12.768Z,84.16
2022-11-18T09:06:42.924Z,83.81
2022-11-18T09:09:12.082Z,83.78
2022-11-18T09:11:42.486Z,83.71
2022-11-18T09:15:11.630Z,83.94
2022-11-18T09:17:02.972Z,83.13
2022-11-18T09:19:46.767Z,83.69
2022-11-18T09:22:17.986Z,83.57
2022-11-18T09:24:46.716Z,83.51
2022-11-18T09:27:17.494Z,83.43
2022-11-18T09:29:47.076Z,81.88
2022-11-18T09:32:15.886Z,83.41
2022-11-18T09:34:44.738Z,83.27
2022-11-18T09:37:13.586Z,83.78
2022-11-18T09:39:43.764Z,83.52
2022-11-18T09:42:35.473Z,83.18
2022-11-18T09:45:23.629Z,83.25
2022-11-18T09:47:55.978Z,83.55
2022-11-18T09:53:21.911Z,83.39
2022-11-18T09:55:54.209Z,83.73
2022-11-18T09:58:35.356Z,82.62
2022-11-18T10:01:10.191Z,83.25
2022-11-18T10:03:41.699Z,82.22
2022-11-18T10:13:43.486Z,82.09
2022-11-18T10:16:30.488Z,82.56
2022-11-18T10:19:11.094Z,83.04
2022-11-18T10:21:58.608Z,83.18
2022-11-18T10:24:34.719Z,83.23
2022-11-18T10:27:03.811Z,82.56
2022-11-18T10:29:33.966Z,82.08
2022-11-18T10:32:06.304Z,80.79
2022-11-18T10:34:48.911Z,81.31
2022-11-18T10:37:45.296Z,81.38
2022-11-18T10:40:28.539Z,80.71
2022-11-18T10:42:57.889Z,80.72
2022-11-18T10:45:31.363Z,80.73
2022-11-18T10:48:09.882Z,81.57
2022-11-18T10:50:42.206Z,80.39
2022-11-18T10:53:32.759Z,80.89
2022-11-18T10:56:04.172Z,81.28
2022-11-18T10:58:38.229Z,80.81
2022-11-18T11:01:15.485Z,80.45
2022-11-18T11:04:02.134Z,79.80
2022-11-18T11:06:38.210Z,79.72
2022-11-18T11:09:29.017Z,79.65
2022-11-18T11:12:04.025Z,79.98
2022-11-18T11:14:51.180Z,80.14
2022-11-18T11:17:32.263Z,79.29
2022-11-18T11:20:11.694Z,80.69
2022-11-18T11:22:41.823Z,80.81
2022-11-18T11:25:17.155Z,80.79
2022-11-18T11:30:52.399Z,79.70
2022-11-18T11:33:34.455Z,79.99
2022-11-18T11:36:43.360Z,80.46
2022-11-18T11:40:01.766Z,79.15
2022-11-18T11:42:48.772Z,79.63
2022-11-18T11:45:33.241Z,79.80
2022-11-18T11:48:32.282Z,80.06
2022-11-18T11:51:08.382Z,78.67
2022-11-18T11:54:41.477Z,80.86
2022-11-18T11:57:24.794Z,79.86
2022-11-18T12:00:03.901Z,80.46
2022-11-18T12:03:02.004Z,80.69
2022-11-18T12:05:37.048Z,80.13
2022-11-18T12:08:14.143Z,80.08
2022-11-18T12:10:51.824Z,79.64
2022-11-18T12:13:37.889Z,79.64
2022-11-18T12:16:28.105Z,79.56
2022-11-18T12:19:02.460Z,79.06
2022-11-18T12:22:00.758Z,79.44
2022-11-18T12:24:34.465Z,79.33
2022-11-18T12:27:12.560Z,78.36
2022-11-18T12:29:55.982Z,77.68
2022-11-18T12:32:36.711Z,78.44
2022-11-18T12:35:26.256Z,78.04
2022-11-18T12:38:05.436Z,78.59
2022-11-18T12:40:47.229Z,77.67
2022-11-18T12:44:07.391Z,77.73
2022-11-18T12:47:00.808Z,78.81
2022-11-18T12:50:14.322Z,78.07
2022-11-18T12:52:57.017Z,77.57
2022-11-18T12:55:39.390Z,77.02
2022-11-18T12:58:25.725Z,77.22
2022-11-18T13:01:09.478Z,78.01
2022-11-18T13:03:38.263Z,77.63
2022-11-18T13:06:21.803Z,76.93
2022-11-18T13:08:55.929Z,77.38
2022-11-18T13:11:46.870Z,77.09
2022-11-18T13:14:41.841Z,77.21
2022-11-18T13:17:49.073Z,77.62
2022-11-18T13:20:31.131Z,77.06
2022-11-18T13:23:19.968Z,76.93
2022-11-18T13:25:51.434Z,76.96
2022-11-18T13:28:33.266Z,76.40
2022-11-18T13:31:10.918Z,76.47
2022-11-18T13:33:42.096Z,76.82
2022-11-18T13:36:19.609Z,76.21
2022-11-18T13:38:58.613Z,76.56
2022-11-18T13:41:32.802Z,77.24
2022-11-18T13:44:20.707Z,77.80
2022-11-18T13:46:53.992Z,76.32
2022-11-18T13:49:50.368Z,76.13
2022-11-18T13:52:25.963Z,76.17
2022-11-18T13:54:57.181Z,77.08
2022-11-18T13:57:29.664Z,76.28
2022-11-18T14:00:07.137Z,76.38
2022-11-18T14:02:46.411Z,76.52
2022-11-18T14:05:22.003Z,76.68
2022-11-18T14:08:06.214Z,76.19
2022-11-18T14:10:43.918Z,76.02
2022-11-18T14:13:26.110Z,75.55
2022-11-18T14:15:59.702Z,76.09
2022-11-18T14:18:34.151Z,75.95
2022-11-18T14:21:06.564Z,75.56
2022-11-18T14:23:38.154Z,75.07
2022-11-18T14:26:09.037Z,74.72
2022-11-18T14:28:39.724Z,74.90
2022-11-18T14:31:27.263Z,74.57
2022-11-18T14:34:17.585Z,75.12
2022-11-18T14:36:47.904Z,74.87
2022-11-18T14:39:31.578Z,74.83
2022-11-18T14:42:01.871Z,75.10
2022-11-18T14:44:30.798Z,74.34
2022-11-18T14:47:21.174Z,74.94
2022-11-18T14:49:50.120Z,75.23
2022-11-18T14:52:18.835Z,75.84
2022-11-18T14:54:48.858Z,75.71
2022-11-18T14:57:19.193Z,75.72
2022-11-18T14:59:48.108Z,75.60
2022-11-18T15:02:19.653Z,76.02
2022-11-18T15:04:50.817Z,75.79
2022-11-18T15:07:23.945Z,76.30
2022-11-18T15:09:53.175Z,76.60
2022-11-18T15:12:22.009Z,76.23
2022-11-18T15:14:50.955Z,76.39
2022-11-18T15:17:21.122Z,75.82
2022-11-18T15:19:49.918Z,75.72
2022-11-18T15:22:18.688Z,75.12
2022-11-18T15:24:47.356Z,75.72
2022-11-18T15:27:16.139Z,75.79
2022-11-18T15:29:44.940Z,74.95
2022-11-18T15:32:13.648Z,75.54
2022-11-18T15:34:43.791Z,73.54
2022-11-18T15:37:13.983Z,74.53
2022-11-18T15:39:42.897Z,75.07
2022-11-18T15:42:12.255Z,73.62
2022-11-18T15:44:41.074Z,73.75
2022-11-18T15:47:09.820Z,73.41
2022-11-18T15:49:43.176Z,73.49
2022-11-18T15:52:13.979Z,73.94
2022-11-18T15:54:42.780Z,73.53
2022-11-18T15:57:11.726Z,73.01
2022-11-18T15:59:40.850Z,73.25
2022-11-18T16:02:12.053Z,73.93
2022-11-18T16:04:41.177Z,73.46
2022-11-18T16:07:10.183Z,73.57
2022-11-18T16:09:57.835Z,72.26
2022-11-18T16:12:44.198Z,73.09
2022-11-18T16:15:30.430Z,73.27
2022-11-18T16:17:59.580Z,73.24
2022-11-18T16:20:29.170Z,73.23
2022-11-18T16:23:00.697Z,73.29
2022-11-18T16:25:30.892Z,72.99
2022-11-18T16:28:06.814Z,73.30
2022-11-18T16:31:02.387Z,73.58
2022-11-18T16:33:31.250Z,73.13
2022-11-18T16:36:00.147Z,72.76
2022-11-18T16:38:28.974Z,73.31
2022-11-18T16:41:00.625Z,73.27
2022-11-18T16:43:29.535Z,74.38
2022-11-18T16:45:58.204Z,73.90
2022-11-18T16:48:26.895Z,74.27
2022-11-18T16:51:20.383Z,74.37
2022-11-18T16:53:54.023Z,74.77
2022-11-18T16:56:26.959Z,74.96
2022-11-18T16:58:59.643Z,74.99
2022-11-18T17:01:30.544Z,74.62
2022-11-18T17:04:01.395Z,75.05
2022-11-18T17:06:32.695Z,74.86
2022-11-18T17:09:01.655Z,75.30
2022-11-18T17:11:32.835Z,74.62
2022-11-18T17:14:03.473Z,73.90
2022-11-18T17:16:32.456Z,74.59
2022-11-18T17:19:10.189Z,74.40
2022-11-18T17:21:40.901Z,74.38
2022-11-18T17:24:12.152Z,73.69
2022-11-18T17:26:43.257Z,74.41
2022-11-18T17:29:15.034Z,73.91
2022-11-18T17:31:44.293Z,74.74
2022-11-18T17:34:15.552Z,73.88
2022-11-18T17:36:45.298Z,73.41
2022-11-18T17:39:16.129Z,73.83
2022-11-18T17:42:07.539Z,73.78
2022-11-18T17:44:36.490Z,74.26
2022-11-18T17:47:05.996Z,74.49
2022-11-18T17:49:34.837Z,73.92
2022-11-18T17:52:03.780Z,73.36
2022-11-18T17:54:32.891Z,73.54
2022-11-18T17:57:03.174Z,73.20
2022-11-18T17:59:32.908Z,72.92
2022-11-18T18:02:02.123Z,72.24
2022-11-18T18:04:31.013Z,72.94
2022-11-18T18:06:59.909Z,73.28
2022-11-18T18:09:31.296Z,72.83
2022-11-18T18:12:23.556Z,72.34
2022-11-18T18:14:52.588Z,72.20
2022-11-18T18:17:22.018Z,73.16
2022-11-18T18:19:50.712Z,72.33
2022-11-18T18:22:19.483Z,72.80
2022-11-18T18:24:48.396Z,71.03
2022-11-18T18:27:18.866Z,71.64
2022-11-18T18:29:47.644Z,72.17
2022-11-18T18:32:16.439Z,72.66
2022-11-18T18:34:45.127Z,72.32
2022-11-18T18:37:14.968Z,72.10
2022-11-18T18:39:43.778Z,71.15
2022-11-18T18:42:12.613Z,71.15
2022-11-18T18:45:00.521Z,70.72
2022-11-18T18:47:29.694Z,71.08
2022-11-18T18:49:58.691Z,70.21
2022-11-18T18:52:27.600Z,69.95
2022-11-18T18:54:56.834Z,69.46
2022-11-18T18:57:26.439Z,69.23
2022-11-18T18:59:56.555Z,69.68
2022-11-18T19:02:25.304Z,69.32
2022-11-18T19:04:55.561Z,69.28
2022-11-18T19:07:24.518Z,69.94
2022-11-18T19:09:53.352Z,68.22
2022-11-18T19:12:40.561Z,69.23
2022-11-18T19:15:12.945Z,69.27
2022-11-18T19:17:42.681Z,68.98
2022-11-18T19:20:31.749Z,67.80
2022-11-18T19:23:05.612Z,68.59
2022-11-18T19:25:37.878Z,67.78
2022-11-18T19:28:06.972Z,68.37
2022-11-18T19:30:37.153Z,68.39
2022-11-18T19:33:06.085Z,68.61
2022-11-18T19:35:35.114Z,68.17
2022-11-18T19:38:03.845Z,68.10
2022-11-18T19:40:32.511Z,69.08
2022-11-18T19:43:01.219Z,68.28
2022-11-18T19:45:30.156Z,67.48
2022-11-18T19:48:01.850Z,68.21
2022-11-18T19:50:30.900Z,67.24
2022-11-18T19:53:19.733Z,67.50
2022-11-18T19:55:55.955Z,68.06
2022-11-18T19:58:26.080Z,66.98
2022-11-18T20:00:55.236Z,66.38
2022-11-18T20:03:25.606Z,66.83
2022-11-18T20:05:54.331Z,67.36
2022-11-18T20:08:25.411Z,67.38
2022-11-18T20:10:54.848Z,68.19
2022-11-18T20:13:23.724Z,69.52
2022-11-18T20:15:53.066Z,68.35
2022-11-18T20:18:23.285Z,68.95
2022-11-18T20:20:53.634Z,68.44
2022-11-18T20:23:22.566Z,67.59
2022-11-18T20:25:51.514Z,67.85
2022-11-18T20:28:20.356Z,67.65
2022-11-18T20:30:53.928Z,67.95
2022-11-18T20:33:23.071Z,66.87
2022-11-18T20:35:53.379Z,67.07
2022-11-18T20:38:22.200Z,67.04
2022-11-18T20:40:51.600Z,67.08
2022-11-18T20:43:21.825Z,67.83
2022-11-18T20:45:56.113Z,66.74
2022-11-18T20:48:25.607Z,66.94
2022-11-18T20:50:55.943Z,68.23
2022-11-18T20:53:26.732Z,68.47
2022-11-18T20:55:56.087Z,67.84
2022-11-18T20:58:25.460Z,67.79
2022-11-18T21:01:01.568Z,69.70
2022-11-18T21:03:31.252Z,69.60
2022-11-18T21:06:12.504Z,70.34
2022-11-18T21:08:43.772Z,70.52
2022-11-18T21:11:14.583Z,70.35
2022-11-18T21:14:01.062Z,69.73
2022-11-18T21:16:38.779Z,70.21
2022-11-18T21:19:17.021Z,70.61
2022-11-18T21:21:49.230Z,70.78
2022-11-18T21:24:20.718Z,69.50
2022-11-18T21:26:54.518Z,70.69
2022-11-18T21:29:25.927Z,70.42
2022-11-18T21:31:55.594Z,70.71
2022-11-18T21:34:24.974Z,70.20
2022-11-18T21:36:55.559Z,70.29
2022-11-18T21:39:25.478Z,70.08
2022-11-18T21:41:57.287Z,69.60
2022-11-18T21:44:28.189Z,69.99
2022-11-18T21:46:58.685Z,70.00
2022-11-18T21:49:27.860Z,70.11
2022-11-18T21:51:57.962Z,70.15
2022-11-18T21:54:26.751Z,70.69
2022-11-18T21:56:55.645Z,71.38
2022-11-18T21:59:24.431Z,71.27
2022-11-18T22:02:07.309Z,71.08
2022-11-18T22:04:53.754Z,71.30
2022-11-18T22:07:25.572Z,70.75
2022-11-18T22:09:55.299Z,70.77
2022-11-18T22:12:24.130Z,69.87
2022-11-18T22:14:52.962Z,70.81
2022-11-18T22:17:21.722Z,71.50
2022-11-18T22:19:50.421Z,71.73
2022-11-18T22:22:19.182Z,72.59
2022-11-18T22:24:49.308Z,72.27
2022-11-18T22:27:18.044Z,72.23
2022-11-18T22:29:46.764Z,72.45
2022-11-18T22:32:15.459Z,72.40
2022-11-18T22:34:47.961Z,72.52
2022-11-18T22:37:19.335Z,72.48
2022-11-18T22:39:49.404Z,71.99
2022-11-18T22:42:35.611Z,71.54
2022-11-18T22:45:04.380Z,71.91
2022-11-18T22:47:33.271Z,72.09
2022-11-18T22:50:01.978Z,71.95
2022-11-18T22:52:30.765Z,70.96
2022-11-18T22:55:00.953Z,70.82
2022-11-18T22:57:35.153Z,70.79
2022-11-18T23:00:04.864Z,70.54
2022-11-18T23:02:33.626Z,70.46
2022-11-18T23:05:02.339Z,71.39
2022-11-18T23:07:31.118Z,71.83
2022-11-18T23:10:01.675Z,71.85
2022-11-18T23:12:48.049Z,71.46
2022-11-18T23:15:16.988Z,71.34
2022-11-18T23:17:45.752Z,71.45
2022-11-18T23:20:14.592Z,70.94
2022-11-18T23:22:43.373Z,71.28
2022-11-18T23:25:13.532Z,71.80
2022-11-18T23:27:42.323Z,72.16
2022-11-18T23:30:12.605Z,72.05
2022-11-18T23:32:41.452Z,72.67
2022-11-18T23:35:10.679Z,71.55
2022-11-18T23:37:39.394Z,71.42
2022-11-18T23:40:10.232Z,72.09
2022-11-18T23:42:40.337Z,72.09
2022-11-18T23:45:10.860Z,71.42
2022-11-18T23:47:39.669Z,71.10
2022-11-18T23:50:09.668Z,71.03
2022-11-18T23:52:41.764Z,71.02
2022-11-18T23:55:11.380Z,71.19
2022-11-18T23:57:41.504Z,70.79
